ADDS METAR Data INFO
IDs: Format: Raw Decoded Include TAF

Data at: 1227 UTC 22 Feb 2018

KW78 221210Z AUTO 19003KT 7SM OVC008 16/15 A3042 RMK AO1 T01570150
KW78 221150Z AUTO 00000KT 4SM BKN010 15/15 A3042 RMK AO1 T01540146
KW78 221130Z AUTO 18003KT 1SM VV007 15/14 A3041 RMK AO1 T01510144
KW78 221110Z AUTO 19003KT 4SM CLR 15/14 A3041 RMK AO1 T01510144
KW78 221050Z AUTO 00000KT 5SM CLR 14/13 A3041 RMK AO1 T01380131
KW78 221030Z AUTO 00000KT 1/2SM BKN009 13/12 A3041 RMK AO1 T01310124
KW78 221010Z AUTO 00000KT 7SM CLR 16/15 A3040 RMK AO1 T01580150
KW78 220950Z AUTO 00000KT 10SM CLR 16/16 A3040 RMK AO1 T01620155
KW78 220930Z AUTO 00000KT 7SM CLR 15/15 A3039 RMK AO1 T01520145
KW78 220910Z AUTO 00000KT 10SM CLR 16/15 A3039 RMK AO1 T01590150
KW78 220850Z AUTO 00000KT 10SM CLR 15/14 A3039 RMK AO1 T01480140
KW78 220830Z AUTO 15003KT 4SM CLR 14/14 A3039 RMK AO1 T01420135
KW78 220810Z AUTO 00000KT 1 1/4SM VV007 14/14 A3040 RMK AO1 T01420135
KW78 220750Z AUTO 00000KT 10SM CLR 16/16 A3040 RMK AO1 T01620155
KW78 220730Z AUTO 00000KT 10SM CLR 15/15 A3041 RMK AO1 T01540146
KW78 220710Z AUTO 00000KT 10SM SCT028 16/15 A3041 RMK AO1 T01550148
KW78 220650Z AUTO 00000KT 10SM SCT028 17/16 A3041 RMK AO1 T01650157
KW78 220630Z AUTO 00000KT 10SM CLR 17/16 A3041 RMK AO1 T01700163
KW78 220610Z AUTO 00000KT 10SM CLR 18/17 A3041 RMK AO1 T01750167
KW78 220550Z AUTO 00000KT 10SM CLR 18/17 A3040 RMK AO1 T01770169
KW78 220530Z AUTO 00000KT 10SM CLR 18/17 A3040 RMK AO1 T01760169
KW78 220510Z AUTO 00000KT 10SM CLR 18/17 A3040 RMK AO1 T01790170
KW78 220450Z AUTO 00000KT 10SM CLR 18/17 A3040 RMK AO1 T01800170
KW78 220430Z AUTO 00000KT 10SM CLR 18/17 A3040 RMK AO1 T01800169
KW78 220410Z AUTO 00000KT 10SM CLR 18/17 A3039 RMK AO1 T01800170
KW78 220350Z AUTO 17003KT 10SM CLR 17/16 A3039 RMK AO1 T01660159
KW78 220030Z AUTO 18004KT 10SM CLR 21/15 A3038 RMK AO1 T02080153
KW78 220010Z AUTO 19004KT 10SM CLR 21/15 A3038 RMK AO1 T02050152
KW78 212350Z AUTO 19005KT 10SM CLR 21/15 A3037 RMK AO1 T02120151
KW78 212330Z AUTO 17004KT 10SM CLR 22/15 A3037 RMK AO1 T02200150
KW78 212310Z AUTO 18008KT 10SM CLR 23/15 A3037 RMK AO1 T02260150
KW78 212250Z AUTO 18006KT 10SM CLR 23/15 A3037 RMK AO1 T02310150
KW78 212230Z AUTO 17008KT 10SM CLR 24/15 A3036 RMK AO1 T02400150
KW78 212210Z AUTO 17008KT 10SM CLR 25/15 A3036 RMK AO1 T02450150
KW78 212150Z AUTO 20010KT 10SM CLR 25/15 A3035 RMK AO1 T02520150
KW78 212130Z AUTO 20008KT 10SM SCT044 26/15 A3035 RMK AO1 T02550150
KW78 212110Z AUTO 19011KT 10SM BKN044 BKN050 25/15 A3036 RMK AO1 T02520150
KW78 212050Z AUTO 18009KT 10SM SCT044 BKN050 BKN065 26/15 A3036 RMK AO1 T02620149
KW78 212030Z AUTO 21008KT 10SM OVC050 25/15 A3037 RMK AO1 T02540150
KW78 212010Z AUTO 22007KT 10SM SCT049 OVC055 25/15 A3037 RMK AO1 T02500149
KW78 212000Z AUTO 22011G18KT 10SM SCT046 OVC055 25/15 A3037 RMK AO1 T02540148
KW78 211930Z AUTO 22007KT 10SM OVC049 26/15 A3038 RMK AO1 T02610151
KW78 211910Z AUTO 21006G14KT 10SM SCT041 OVC049 26/15 A3038 RMK AO1 T02570151
KW78 211850Z AUTO 21008G18KT 10SM SCT041 OVC049 25/15 A3039 RMK AO1 T02500147
KW78 211830Z AUTO 20010G17KT 10SM SCT039 BKN045 26/15 A3040 RMK AO1 T02600151
KW78 211810Z AUTO 21010G15KT 10SM BKN045 25/15 A3040 RMK AO1 T02530152
KW78 211750Z AUTO 22011G15KT 10SM BKN037 OVC045 24/15 A3041 RMK AO1 T02420152
KW78 211730Z AUTO 23004KT 10SM BKN035 OVC043 24/16 A3041 RMK AO1 T02400155
KW78 211710Z AUTO 19012G18KT 10SM BKN032 OVC043 24/15 A3042 RMK AO1 T02440154
KW78 211650Z AUTO 22009KT 10SM BKN030 OVC038 25/16 A3043 RMK AO1 T02460158
KW78 211630Z AUTO 20012G17KT 10SM SCT028 BKN032 OVC038 25/16 A3044 RMK AO1 T02470159
KW78 211610Z AUTO 20011G17KT 10SM BKN028 BKN032 24/16 A3045 RMK AO1 T02350160
KW78 211550Z AUTO 23013G23KT 10SM BKN026 BKN032 23/16 A3045 RMK AO1 T02330161
KW78 211530Z AUTO 21013G21KT 10SM BKN024 OVC034 23/17 A3045 RMK AO1 T02300166
KW78 211510Z AUTO 20011G21KT 10SM SCT024 OVC034 23/17 A3045 RMK AO1 T02250169
KW78 211450Z AUTO 22009G19KT 10SM OVC034 22/17 A3045 RMK AO1 T02200173
KW78 211430Z AUTO 21013G18KT 10SM SCT013 OVC032 21/18 A3045 RMK AO1 T02100175
KW78 211410Z AUTO 22008KT 7SM BKN013 OVC030 20/19 A3044 RMK AO1 T02020187
KW78 211350Z AUTO 22005KT 10SM SCT013 OVC030 20/19 A3045 RMK AO1 T01950187
KW78 211330Z AUTO 20008KT 10SM OVC026 19/18 A3044 RMK AO1 T01860179
KW78 211310Z AUTO 20006KT 10SM OVC026 18/18 A3044 RMK AO1 T01830175
KW78 211250Z AUTO 20004KT 10SM OVC024 18/17 A3044 RMK AO1 T01790171
KW78 211230Z AUTO 21004KT 10SM OVC022 18/17 A3044 RMK AO1 T01760169
KW78 210730Z AUTO 24003KT 7SM CLR 15/14 A3041 RMK AO1 T01450137
KW78 210710Z AUTO 24005KT 10SM CLR 15/14 A3041 RMK AO1 T01460139
KW78 210650Z AUTO 00000KT 10SM CLR 15/14 A3040 RMK AO1 T01500142
KW78 210630Z AUTO 15004KT 10SM CLR 14/14 A3040 RMK AO1 T01430135
KW78 210610Z AUTO 00000KT 7SM CLR 14/13 A3041 RMK AO1 T01380131
KW78 210550Z AUTO 22004KT 3SM CLR 14/13 A3041 RMK AO1 T01370130